Ktima, Cyprus
Current Conditions -  °F | °C
As of 12:00 PM on Wednesday 26 Nov 2014 (Local Time) from LCPH Reporting Station
Broken Clouds Broken Clouds  
Wind Chill: 63°   Ceiling: 5000
Heat Index: 63°   Visibility: 6mi
Dew Point: 45°   Wind: 16mph
Humidity: 52%   Direction: 300°WNW
Pressure: 29.8"   Gusts: NA
Location:  34.76°N, 32.42°E
Report Text: LCPH 260900Z 30014KT 9999 FEW025TCU BKN050 17/07 Q1009
Loading
Personal Weather Stations






























Interactive Weather Map New forecast layout! Learn more

10-Day Weather Forecast

Advertisements
Track Severe Weather on mobile